sensor_id;sensor_type;location;lat;lon;timestamp;temperature;humidity
22706;DHT22;11520;51.198;4.468;2023-11-19T00:00:45;13.30;99.90
22706;DHT22;11520;51.198;4.468;2023-11-19T00:03:11;13.30;99.90
22706;DHT22;11520;51.198;4.468;2023-11-19T00:05:38;13.30;99.90
22706;DHT22;11520;51.198;4.468;2023-11-19T00:08:04;13.30;99.90
22706;DHT22;11520;51.198;4.468;2023-11-19T00:10:31;13.30;99.90
22706;DHT22;11520;51.198;4.468;2023-11-19T00:12:56;13.30;99.90
22706;DHT22;11520;51.198;4.468;2023-11-19T00:15:22;13.30;99.90
22706;DHT22;11520;51.198;4.468;2023-11-19T00:17:49;13.30;99.90
22706;DHT22;11520;51.198;4.468;2023-11-19T00:20:17;13.30;99.90
22706;DHT22;11520;51.198;4.468;2023-11-19T00:22:44;13.30;99.90
22706;DHT22;11520;51.198;4.468;2023-11-19T00:25:10;13.40;99.90
22706;DHT22;11520;51.198;4.468;2023-11-19T00:27:38;13.40;99.90
22706;DHT22;11520;51.198;4.468;2023-11-19T00:30:05;13.40;99.90
22706;DHT22;11520;51.198;4.468;2023-11-19T00:32:32;13.30;99.90
22706;DHT22;11520;51.198;4.468;2023-11-19T00:34:58;13.30;99.90
22706;DHT22;11520;51.198;4.468;2023-11-19T00:37:23;13.40;99.90
22706;DHT22;11520;51.198;4.468;2023-11-19T00:39:49;13.30;99.90
22706;DHT22;11520;51.198;4.468;2023-11-19T00:42:15;13.30;99.90
22706;DHT22;11520;51.198;4.468;2023-11-19T00:44:40;13.40;99.90
22706;DHT22;11520;51.198;4.468;2023-11-19T00:47:07;13.40;99.90
22706;DHT22;11520;51.198;4.468;2023-11-19T00:49:32;13.30;99.90
22706;DHT22;11520;51.198;4.468;2023-11-19T00:51:59;13.30;99.90
22706;DHT22;11520;51.198;4.468;2023-11-19T00:54:25;13.30;99.90
22706;DHT22;11520;51.198;4.468;2023-11-19T00:56:54;13.40;99.90
22706;DHT22;11520;51.198;4.468;2023-11-19T00:59:20;13.30;99.90
22706;DHT22;11520;51.198;4.468;2023-11-19T01:01:46;13.30;99.90
22706;DHT22;11520;51.198;4.468;2023-11-19T01:04:16;13.30;99.90
22706;DHT22;11520;51.198;4.468;2023-11-19T01:06:42;13.30;99.90
22706;DHT22;11520;51.198;4.468;2023-11-19T01:09:08;13.30;99.90
22706;DHT22;11520;51.198;4.468;2023-11-19T01:11:34;13.30;99.90
22706;DHT22;11520;51.198;4.468;2023-11-19T01:14:00;13.30;99.90
22706;DHT22;11520;51.198;4.468;2023-11-19T01:16:26;13.40;99.90
22706;DHT22;11520;51.198;4.468;2023-11-19T01:18:51;13.30;99.90
22706;DHT22;11520;51.198;4.468;2023-11-19T01:21:18;13.30;99.90
22706;DHT22;11520;51.198;4.468;2023-11-19T01:23:43;13.30;99.90
22706;DHT22;11520;51.198;4.468;2023-11-19T01:26:12;13.30;99.90
22706;DHT22;11520;51.198;4.468;2023-11-19T01:28:39;13.20;99.90
22706;DHT22;11520;51.198;4.468;2023-11-19T01:31:05;13.20;99.90
22706;DHT22;11520;51.198;4.468;2023-11-19T01:33:32;13.10;99.90
22706;DHT22;11520;51.198;4.468;2023-11-19T01:35:58;13.10;99.90
22706;DHT22;11520;51.198;4.468;2023-11-19T01:38:24;13.10;99.90
22706;DHT22;11520;51.198;4.468;2023-11-19T01:40:50;13.00;99.90
22706;DHT22;11520;51.198;4.468;2023-11-19T01:43:34;13.00;99.90
22706;DHT22;11520;51.198;4.468;2023-11-19T01:46:01;13.10;99.90
22706;DHT22;11520;51.198;4.468;2023-11-19T01:48:27;13.10;99.90
22706;DHT22;11520;51.198;4.468;2023-11-19T01:50:53;13.10;99.90
22706;DHT22;11520;51.198;4.468;2023-11-19T01:53:19;13.10;99.90
22706;DHT22;11520;51.198;4.468;2023-11-19T01:55:46;13.20;99.90
22706;DHT22;11520;51.198;4.468;2023-11-19T01:58:14;13.10;99.90
22706;DHT22;11520;51.198;4.468;2023-11-19T02:00:40;13.00;99.90
22706;DHT22;11520;51.198;4.468;2023-11-19T02:03:06;13.00;99.90
22706;DHT22;11520;51.198;4.468;2023-11-19T02:05:34;13.00;99.90
22706;DHT22;11520;51.198;4.468;2023-11-19T02:08:00;13.00;99.90
22706;DHT22;11520;51.198;4.468;2023-11-19T02:10:26;12.90;99.90
22706;DHT22;11520;51.198;4.468;2023-11-19T02:12:52;12.90;99.90
22706;DHT22;11520;51.198;4.468;2023-11-19T02:15:17;12.90;99.90
22706;DHT22;11520;51.198;4.468;2023-11-19T02:17:47;12.80;99.90
22706;DHT22;11520;51.198;4.468;2023-11-19T02:20:12;12.80;99.90
22706;DHT22;11520;51.198;4.468;2023-11-19T02:22:40;12.80;99.90
22706;DHT22;11520;51.198;4.468;2023-11-19T02:25:11;12.80;99.90
22706;DHT22;11520;51.198;4.468;2023-11-19T02:27:54;12.80;99.90
22706;DHT22;11520;51.198;4.468;2023-11-19T02:30:21;12.80;99.90
22706;DHT22;11520;51.198;4.468;2023-11-19T02:32:53;12.70;99.90
22706;DHT22;11520;51.198;4.468;2023-11-19T02:35:21;12.60;99.90
22706;DHT22;11520;51.198;4.468;2023-11-19T02:37:47;12.70;99.90
22706;DHT22;11520;51.198;4.468;2023-11-19T02:40:13;12.70;99.90
22706;DHT22;11520;51.198;4.468;2023-11-19T02:42:38;12.70;99.90
22706;DHT22;11520;51.198;4.468;2023-11-19T02:45:04;12.70;99.90
22706;DHT22;11520;51.198;4.468;2023-11-19T02:47:32;12.70;99.90
22706;DHT22;11520;51.198;4.468;2023-11-19T02:49:57;12.70;99.90
22706;DHT22;11520;51.198;4.468;2023-11-19T02:52:23;12.60;99.90
22706;DHT22;11520;51.198;4.468;2023-11-19T02:54:50;12.50;99.90
22706;DHT22;11520;51.198;4.468;2023-11-19T02:57:16;12.50;99.90
22706;DHT22;11520;51.198;4.468;2023-11-19T02:59:45;12.40;99.90
22706;DHT22;11520;51.198;4.468;2023-11-19T03:02:11;12.40;99.90
22706;DHT22;11520;51.198;4.468;2023-11-19T03:04:38;12.40;99.90
22706;DHT22;11520;51.198;4.468;2023-11-19T03:07:08;12.40;99.90
22706;DHT22;11520;51.198;4.468;2023-11-19T03:09:33;12.40;99.90
22706;DHT22;11520;51.198;4.468;2023-11-19T03:12:00;12.30;99.90
22706;DHT22;11520;51.198;4.468;2023-11-19T03:14:26;12.30;99.90
22706;DHT22;11520;51.198;4.468;2023-11-19T03:16:53;12.30;99.90
22706;DHT22;11520;51.198;4.468;2023-11-19T03:19:19;12.30;99.90
22706;DHT22;11520;51.198;4.468;2023-11-19T03:21:45;12.30;99.90
22706;DHT22;11520;51.198;4.468;2023-11-19T03:24:13;12.30;99.90
22706;DHT22;11520;51.198;4.468;2023-11-19T03:26:39;12.30;99.90
22706;DHT22;11520;51.198;4.468;2023-11-19T03:29:05;12.30;99.90
22706;DHT22;11520;51.198;4.468;2023-11-19T03:31:31;12.40;99.90
22706;DHT22;11520;51.198;4.468;2023-11-19T03:33:56;12.40;99.90
22706;DHT22;11520;51.198;4.468;2023-11-19T03:36:22;12.30;99.90
22706;DHT22;11520;51.198;4.468;2023-11-19T03:38:48;12.40;99.90
22706;DHT22;11520;51.198;4.468;2023-11-19T03:41:14;12.30;99.90
22706;DHT22;11520;51.198;4.468;2023-11-19T03:43:41;12.30;99.90
22706;DHT22;11520;51.198;4.468;2023-11-19T03:46:19;12.30;99.90
22706;DHT22;11520;51.198;4.468;2023-11-19T03:48:48;12.30;99.90
22706;DHT22;11520;51.198;4.468;2023-11-19T03:51:14;12.30;99.90
22706;DHT22;11520;51.198;4.468;2023-11-19T03:54:00;12.30;99.90
22706;DHT22;11520;51.198;4.468;2023-11-19T03:56:26;12.30;99.90
22706;DHT22;11520;51.198;4.468;2023-11-19T03:58:52;12.20;99.90
22706;DHT22;11520;51.198;4.468;2023-11-19T04:01:18;12.20;99.90
22706;DHT22;11520;51.198;4.468;2023-11-19T04:03:44;12.20;99.90
22706;DHT22;11520;51.198;4.468;2023-11-19T04:06:09;12.30;99.90
22706;DHT22;11520;51.198;4.468;2023-11-19T04:08:35;12.30;99.90
22706;DHT22;11520;51.198;4.468;2023-11-19T04:11:05;12.40;99.90
22706;DHT22;11520;51.198;4.468;2023-11-19T04:13:31;12.40;99.90
22706;DHT22;11520;51.198;4.468;2023-11-19T04:15:56;12.40;99.90
22706;DHT22;11520;51.198;4.468;2023-11-19T04:18:22;12.40;99.90
22706;DHT22;11520;51.198;4.468;2023-11-19T04:20:48;12.50;99.90
22706;DHT22;11520;51.198;4.468;2023-11-19T04:23:15;12.40;99.90
22706;DHT22;11520;51.198;4.468;2023-11-19T04:25:40;12.30;99.90
22706;DHT22;11520;51.198;4.468;2023-11-19T04:28:06;12.30;99.90
22706;DHT22;11520;51.198;4.468;2023-11-19T04:30:31;12.20;99.90
22706;DHT22;11520;51.198;4.468;2023-11-19T04:32:57;12.10;99.90
22706;DHT22;11520;51.198;4.468;2023-11-19T04:35:23;12.00;99.90
22706;DHT22;11520;51.198;4.468;2023-11-19T04:37:49;12.00;99.90
22706;DHT22;11520;51.198;4.468;2023-11-19T04:40:14;12.00;99.90
22706;DHT22;11520;51.198;4.468;2023-11-19T04:42:40;11.90;99.90
22706;DHT22;11520;51.198;4.468;2023-11-19T04:45:06;11.90;99.90
22706;DHT22;11520;51.198;4.468;2023-11-19T04:47:38;11.90;99.90
22706;DHT22;11520;51.198;4.468;2023-11-19T04:50:04;11.80;99.90
22706;DHT22;11520;51.198;4.468;2023-11-19T04:52:30;11.80;99.90
22706;DHT22;11520;51.198;4.468;2023-11-19T04:54:56;11.70;99.90
22706;DHT22;11520;51.198;4.468;2023-11-19T04:57:21;11.70;99.90
22706;DHT22;11520;51.198;4.468;2023-11-19T04:59:47;11.70;99.90
22706;DHT22;11520;51.198;4.468;2023-11-19T05:02:12;11.60;99.90
22706;DHT22;11520;51.198;4.468;2023-11-19T05:04:42;11.60;99.90
22706;DHT22;11520;51.198;4.468;2023-11-19T05:07:09;11.60;99.90
22706;DHT22;11520;51.198;4.468;2023-11-19T05:09:35;11.50;99.90
22706;DHT22;11520;51.198;4.468;2023-11-19T05:12:00;11.50;99.90
22706;DHT22;11520;51.198;4.468;2023-11-19T05:14:28;11.60;99.90
22706;DHT22;11520;51.198;4.468;2023-11-19T05:16:53;11.50;99.90
22706;DHT22;11520;51.198;4.468;2023-11-19T05:19:19;11.50;99.90
22706;DHT22;11520;51.198;4.468;2023-11-19T05:21:44;11.50;99.90
22706;DHT22;11520;51.198;4.468;2023-11-19T05:24:10;11.50;99.90
22706;DHT22;11520;51.198;4.468;2023-11-19T05:26:37;11.40;99.90
22706;DHT22;11520;51.198;4.468;2023-11-19T05:29:03;11.40;99.90
22706;DHT22;11520;51.198;4.468;2023-11-19T05:31:30;11.40;99.90
22706;DHT22;11520;51.198;4.468;2023-11-19T05:33:55;11.40;99.90
22706;DHT22;11520;51.198;4.468;2023-11-19T05:36:21;11.40;99.90
22706;DHT22;11520;51.198;4.468;2023-11-19T05:38:47;11.40;99.90
22706;DHT22;11520;51.198;4.468;2023-11-19T05:41:12;11.40;99.90
22706;DHT22;11520;51.198;4.468;2023-11-19T05:43:38;11.30;99.90
22706;DHT22;11520;51.198;4.468;2023-11-19T05:46:06;11.30;99.90
22706;DHT22;11520;51.198;4.468;2023-11-19T05:48:32;11.40;99.90
22706;DHT22;11520;51.198;4.468;2023-11-19T05:50:58;11.40;99.90
22706;DHT22;11520;51.198;4.468;2023-11-19T05:53:24;11.30;99.90
22706;DHT22;11520;51.198;4.468;2023-11-19T05:55:50;11.30;99.90
22706;DHT22;11520;51.198;4.468;2023-11-19T05:58:24;11.20;99.90
22706;DHT22;11520;51.198;4.468;2023-11-19T06:00:58;11.20;99.90
22706;DHT22;11520;51.198;4.468;2023-11-19T06:03:26;11.20;99.90
22706;DHT22;11520;51.198;4.468;2023-11-19T06:05:53;11.30;99.90
22706;DHT22;11520;51.198;4.468;2023-11-19T06:08:20;11.30;99.90
22706;DHT22;11520;51.198;4.468;2023-11-19T06:10:46;11.30;99.90
22706;DHT22;11520;51.198;4.468;2023-11-19T06:13:12;11.30;99.90
22706;DHT22;11520;51.198;4.468;2023-11-19T06:15:41;11.40;99.90
22706;DHT22;11520;51.198;4.468;2023-11-19T06:18:07;11.50;99.90
22706;DHT22;11520;51.198;4.468;2023-11-19T06:20:33;11.50;99.90
22706;DHT22;11520;51.198;4.468;2023-11-19T06:23:00;11.50;99.90
22706;DHT22;11520;51.198;4.468;2023-11-19T06:25:26;11.40;99.90
22706;DHT22;11520;51.198;4.468;2023-11-19T06:27:52;11.40;99.90
22706;DHT22;11520;51.198;4.468;2023-11-19T06:30:19;11.40;99.90
22706;DHT22;11520;51.198;4.468;2023-11-19T06:32:46;11.30;99.90
22706;DHT22;11520;51.198;4.468;2023-11-19T06:35:12;11.30;99.90
22706;DHT22;11520;51.198;4.468;2023-11-19T06:37:40;11.20;99.90
22706;DHT22;11520;51.198;4.468;2023-11-19T06:40:06;11.30;99.90
22706;DHT22;11520;51.198;4.468;2023-11-19T06:42:32;11.20;99.90
22706;DHT22;11520;51.198;4.468;2023-11-19T06:44:58;11.30;99.90
22706;DHT22;11520;51.198;4.468;2023-11-19T06:47:27;11.20;99.90
22706;DHT22;11520;51.198;4.468;2023-11-19T06:49:54;11.20;99.90
22706;DHT22;11520;51.198;4.468;2023-11-19T06:52:20;11.20;99.90
22706;DHT22;11520;51.198;4.468;2023-11-19T06:54:45;11.20;99.90
22706;DHT22;11520;51.198;4.468;2023-11-19T06:57:11;11.20;99.90
22706;DHT22;11520;51.198;4.468;2023-11-19T06:59:37;11.20;99.90
22706;DHT22;11520;51.198;4.468;2023-11-19T07:02:03;11.10;99.90
22706;DHT22;11520;51.198;4.468;2023-11-19T07:04:30;11.20;99.90
22706;DHT22;11520;51.198;4.468;2023-11-19T07:06:55;11.10;99.90
22706;DHT22;11520;51.198;4.468;2023-11-19T07:09:21;11.10;99.90
22706;DHT22;11520;51.198;4.468;2023-11-19T07:11:49;11.10;99.90
22706;DHT22;11520;51.198;4.468;2023-11-19T07:14:17;11.10;99.90
22706;DHT22;11520;51.198;4.468;2023-11-19T07:16:43;11.10;99.90
22706;DHT22;11520;51.198;4.468;2023-11-19T07:19:09;11.10;99.90
22706;DHT22;11520;51.198;4.468;2023-11-19T07:21:35;11.10;99.90
22706;DHT22;11520;51.198;4.468;2023-11-19T07:24:05;11.10;99.90
22706;DHT22;11520;51.198;4.468;2023-11-19T07:26:31;11.10;99.90
22706;DHT22;11520;51.198;4.468;2023-11-19T07:28:56;11.10;99.90
22706;DHT22;11520;51.198;4.468;2023-11-19T07:31:23;11.10;99.90
22706;DHT22;11520;51.198;4.468;2023-11-19T07:33:49;11.20;99.90
22706;DHT22;11520;51.198;4.468;2023-11-19T07:36:15;11.20;99.90
22706;DHT22;11520;51.198;4.468;2023-11-19T07:38:40;11.20;99.90
22706;DHT22;11520;51.198;4.468;2023-11-19T07:41:06;11.30;99.90
22706;DHT22;11520;51.198;4.468;2023-11-19T07:43:32;11.30;99.90
22706;DHT22;11520;51.198;4.468;2023-11-19T07:46:00;11.30;99.90
22706;DHT22;11520;51.198;4.468;2023-11-19T07:48:25;11.30;99.90
22706;DHT22;11520;51.198;4.468;2023-11-19T07:50:52;11.40;99.90
22706;DHT22;11520;51.198;4.468;2023-11-19T07:53:19;11.50;99.90
22706;DHT22;11520;51.198;4.468;2023-11-19T07:55:46;11.50;99.90
22706;DHT22;11520;51.198;4.468;2023-11-19T07:58:12;11.60;99.90
22706;DHT22;11520;51.198;4.468;2023-11-19T08:00:38;11.60;99.90
22706;DHT22;11520;51.198;4.468;2023-11-19T08:03:04;11.80;99.90
22706;DHT22;11520;51.198;4.468;2023-11-19T08:05:31;11.80;99.90
22706;DHT22;11520;51.198;4.468;2023-11-19T08:07:56;11.80;99.90
22706;DHT22;11520;51.198;4.468;2023-11-19T08:10:22;11.80;99.90
22706;DHT22;11520;51.198;4.468;2023-11-19T08:12:48;11.90;99.90
22706;DHT22;11520;51.198;4.468;2023-11-19T08:15:14;12.00;99.90
22706;DHT22;11520;51.198;4.468;2023-11-19T08:17:40;12.00;99.90
22706;DHT22;11520;51.198;4.468;2023-11-19T08:20:08;12.00;99.90
22706;DHT22;11520;51.198;4.468;2023-11-19T08:22:36;12.00;99.90
22706;DHT22;11520;51.198;4.468;2023-11-19T08:25:03;12.20;99.90
22706;DHT22;11520;51.198;4.468;2023-11-19T08:27:29;12.20;99.90
22706;DHT22;11520;51.198;4.468;2023-11-19T08:29:55;12.30;99.90
22706;DHT22;11520;51.198;4.468;2023-11-19T08:32:25;12.40;99.90
22706;DHT22;11520;51.198;4.468;2023-11-19T08:34:51;12.40;99.90
22706;DHT22;11520;51.198;4.468;2023-11-19T08:37:17;12.40;99.90
22706;DHT22;11520;51.198;4.468;2023-11-19T08:39:51;12.40;99.90
22706;DHT22;11520;51.198;4.468;2023-11-19T08:42:17;12.40;99.90
22706;DHT22;11520;51.198;4.468;2023-11-19T08:44:43;12.50;99.90
22706;DHT22;11520;51.198;4.468;2023-11-19T08:47:12;12.60;99.90
22706;DHT22;11520;51.198;4.468;2023-11-19T08:49:39;12.80;99.90
22706;DHT22;11520;51.198;4.468;2023-11-19T08:52:05;12.80;99.90
22706;DHT22;11520;51.198;4.468;2023-11-19T08:54:32;12.80;99.90
22706;DHT22;11520;51.198;4.468;2023-11-19T08:56:58;12.90;99.90
22706;DHT22;11520;51.198;4.468;2023-11-19T08:59:24;12.90;99.90
22706;DHT22;11520;51.198;4.468;2023-11-19T09:01:50;12.90;99.90
22706;DHT22;11520;51.198;4.468;2023-11-19T09:04:16;13.00;99.90
22706;DHT22;11520;51.198;4.468;2023-11-19T09:06:41;13.00;99.90
22706;DHT22;11520;51.198;4.468;2023-11-19T09:09:08;13.00;99.90
22706;DHT22;11520;51.198;4.468;2023-11-19T09:11:33;13.10;99.90
22706;DHT22;11520;51.198;4.468;2023-11-19T09:13:59;13.10;99.90
22706;DHT22;11520;51.198;4.468;2023-11-19T09:16:25;13.10;99.90
22706;DHT22;11520;51.198;4.468;2023-11-19T09:18:50;13.20;99.90
22706;DHT22;11520;51.198;4.468;2023-11-19T09:21:16;13.10;99.90
22706;DHT22;11520;51.198;4.468;2023-11-19T09:23:41;13.10;99.90
22706;DHT22;11520;51.198;4.468;2023-11-19T09:26:08;13.20;99.90
22706;DHT22;11520;51.198;4.468;2023-11-19T09:28:35;13.30;99.90
22706;DHT22;11520;51.198;4.468;2023-11-19T09:31:01;13.30;99.90
22706;DHT22;11520;51.198;4.468;2023-11-19T09:33:30;13.40;99.90
22706;DHT22;11520;51.198;4.468;2023-11-19T09:35:56;13.50;99.90
22706;DHT22;11520;51.198;4.468;2023-11-19T09:38:21;13.70;99.90
22706;DHT22;11520;51.198;4.468;2023-11-19T09:40:47;13.80;99.90
22706;DHT22;11520;51.198;4.468;2023-11-19T09:43:15;13.90;99.90
22706;DHT22;11520;51.198;4.468;2023-11-19T09:45:50;14.00;99.90
22706;DHT22;11520;51.198;4.468;2023-11-19T09:48:18;14.20;99.90
22706;DHT22;11520;51.198;4.468;2023-11-19T09:50:47;14.30;99.90
22706;DHT22;11520;51.198;4.468;2023-11-19T09:53:17;14.50;99.90
22706;DHT22;11520;51.198;4.468;2023-11-19T09:55:43;15.10;99.90
22706;DHT22;11520;51.198;4.468;2023-11-19T09:58:09;15.60;99.90
22706;DHT22;11520;51.198;4.468;2023-11-19T10:00:37;16.00;99.90
22706;DHT22;11520;51.198;4.468;2023-11-19T10:03:04;16.40;99.90
22706;DHT22;11520;51.198;4.468;2023-11-19T10:05:32;16.60;99.90
22706;DHT22;11520;51.198;4.468;2023-11-19T10:07:58;16.60;99.90
22706;DHT22;11520;51.198;4.468;2023-11-19T10:10:24;17.00;99.90
22706;DHT22;11520;51.198;4.468;2023-11-19T10:12:52;17.30;99.90
22706;DHT22;11520;51.198;4.468;2023-11-19T10:15:21;17.50;99.90
22706;DHT22;11520;51.198;4.468;2023-11-19T10:17:56;17.60;99.90
22706;DHT22;11520;51.198;4.468;2023-11-19T10:20:23;17.90;99.90
22706;DHT22;11520;51.198;4.468;2023-11-19T10:22:55;17.90;99.90
22706;DHT22;11520;51.198;4.468;2023-11-19T10:25:28;17.80;99.90
22706;DHT22;11520;51.198;4.468;2023-11-19T10:27:54;17.70;99.90
22706;DHT22;11520;51.198;4.468;2023-11-19T10:30:26;17.70;99.90
22706;DHT22;11520;51.198;4.468;2023-11-19T10:33:13;17.20;99.90
22706;DHT22;11520;51.198;4.468;2023-11-19T10:35:53;16.70;99.90
22706;DHT22;11520;51.198;4.468;2023-11-19T10:38:19;16.00;99.90
22706;DHT22;11520;51.198;4.468;2023-11-19T10:40:44;15.60;99.90
22706;DHT22;11520;51.198;4.468;2023-11-19T10:43:11;15.30;99.90
22706;DHT22;11520;51.198;4.468;2023-11-19T10:45:37;15.00;99.90
22706;DHT22;11520;51.198;4.468;2023-11-19T10:48:04;14.90;99.90
22706;DHT22;11520;51.198;4.468;2023-11-19T10:50:36;14.70;99.90
22706;DHT22;11520;51.198;4.468;2023-11-19T10:53:02;14.60;99.90
22706;DHT22;11520;51.198;4.468;2023-11-19T10:55:30;14.80;99.90
22706;DHT22;11520;51.198;4.468;2023-11-19T10:58:03;15.10;99.90
22706;DHT22;11520;51.198;4.468;2023-11-19T11:00:30;15.50;99.90
22706;DHT22;11520;51.198;4.468;2023-11-19T11:03:01;15.80;99.90
22706;DHT22;11520;51.198;4.468;2023-11-19T11:05:29;16.20;99.90
22706;DHT22;11520;51.198;4.468;2023-11-19T11:07:58;16.30;99.90
22706;DHT22;11520;51.198;4.468;2023-11-19T11:10:26;16.20;99.90
22706;DHT22;11520;51.198;4.468;2023-11-19T11:12:52;15.80;99.90
22706;DHT22;11520;51.198;4.468;2023-11-19T11:15:27;15.30;99.90
22706;DHT22;11520;51.198;4.468;2023-11-19T11:17:59;15.10;99.90
22706;DHT22;11520;51.198;4.468;2023-11-19T11:20:32;14.90;99.90
22706;DHT22;11520;51.198;4.468;2023-11-19T11:23:35;14.80;99.90
22706;DHT22;11520;51.198;4.468;2023-11-19T11:26:28;14.90;99.90
22706;DHT22;11520;51.198;4.468;2023-11-19T11:29:20;15.20;99.90
22706;DHT22;11520;51.198;4.468;2023-11-19T11:34:45;15.80;99.90
22706;DHT22;11520;51.198;4.468;2023-11-19T11:37:34;16.00;99.90
22706;DHT22;11520;51.198;4.468;2023-11-19T11:40:02;16.10;99.90
22706;DHT22;11520;51.198;4.468;2023-11-19T11:42:37;16.20;99.90
22706;DHT22;11520;51.198;4.468;2023-11-19T11:50:36;16.80;99.90
22706;DHT22;11520;51.198;4.468;2023-11-19T11:55:34;16.40;99.90
22706;DHT22;11520;51.198;4.468;2023-11-19T11:58:02;16.40;99.90
22706;DHT22;11520;51.198;4.468;2023-11-19T12:00:30;16.10;99.90
22706;DHT22;11520;51.198;4.468;2023-11-19T12:02:56;15.90;99.90
22706;DHT22;11520;51.198;4.468;2023-11-19T12:05:22;15.70;99.90
22706;DHT22;11520;51.198;4.468;2023-11-19T12:08:10;15.50;99.90
22706;DHT22;11520;51.198;4.468;2023-11-19T12:10:43;15.30;99.90
22706;DHT22;11520;51.198;4.468;2023-11-19T12:13:09;14.90;99.90
22706;DHT22;11520;51.198;4.468;2023-11-19T12:16:09;14.60;99.90
22706;DHT22;11520;51.198;4.468;2023-11-19T12:18:35;14.50;99.90
22706;DHT22;11520;51.198;4.468;2023-11-19T12:21:01;14.30;99.90
22706;DHT22;11520;51.198;4.468;2023-11-19T12:23:29;14.10;99.90
22706;DHT22;11520;51.198;4.468;2023-11-19T12:25:55;14.00;99.90
22706;DHT22;11520;51.198;4.468;2023-11-19T12:28:21;14.00;99.90
22706;DHT22;11520;51.198;4.468;2023-11-19T12:30:49;14.00;99.90
22706;DHT22;11520;51.198;4.468;2023-11-19T12:33:16;13.90;99.90
22706;DHT22;11520;51.198;4.468;2023-11-19T12:35:44;13.80;99.90
22706;DHT22;11520;51.198;4.468;2023-11-19T12:38:23;13.70;99.90
22706;DHT22;11520;51.198;4.468;2023-11-19T12:41:09;13.50;99.90
22706;DHT22;11520;51.198;4.468;2023-11-19T12:43:39;13.60;99.90
22706;DHT22;11520;51.198;4.468;2023-11-19T12:46:23;13.50;99.90
22706;DHT22;11520;51.198;4.468;2023-11-19T12:48:49;13.70;99.90
22706;DHT22;11520;51.198;4.468;2023-11-19T12:51:15;13.80;99.90
22706;DHT22;11520;51.198;4.468;2023-11-19T12:53:52;13.80;99.90
22706;DHT22;11520;51.198;4.468;2023-11-19T12:56:21;13.90;99.90
22706;DHT22;11520;51.198;4.468;2023-11-19T12:58:47;13.90;99.90
22706;DHT22;11520;51.198;4.468;2023-11-19T13:01:20;14.00;99.90
22706;DHT22;11520;51.198;4.468;2023-11-19T13:03:46;14.00;99.90
22706;DHT22;11520;51.198;4.468;2023-11-19T13:06:13;14.20;99.90
22706;DHT22;11520;51.198;4.468;2023-11-19T13:08:47;14.10;99.90
22706;DHT22;11520;51.198;4.468;2023-11-19T13:11:35;14.10;99.90
22706;DHT22;11520;51.198;4.468;2023-11-19T13:14:03;14.10;99.90
22706;DHT22;11520;51.198;4.468;2023-11-19T13:16:38;14.00;99.90
22706;DHT22;11520;51.198;4.468;2023-11-19T13:19:04;13.90;99.90
22706;DHT22;11520;51.198;4.468;2023-11-19T13:21:31;13.90;99.90
22706;DHT22;11520;51.198;4.468;2023-11-19T13:23:57;13.80;99.90
22706;DHT22;11520;51.198;4.468;2023-11-19T13:26:42;13.80;99.90
22706;DHT22;11520;51.198;4.468;2023-11-19T13:29:08;13.70;99.90
22706;DHT22;11520;51.198;4.468;2023-11-19T13:31:35;13.70;99.90
22706;DHT22;11520;51.198;4.468;2023-11-19T13:34:01;13.60;99.90
22706;DHT22;11520;51.198;4.468;2023-11-19T13:36:27;13.60;99.90
22706;DHT22;11520;51.198;4.468;2023-11-19T13:38:52;13.70;99.90
22706;DHT22;11520;51.198;4.468;2023-11-19T13:41:27;13.80;99.90
22706;DHT22;11520;51.198;4.468;2023-11-19T13:43:52;13.80;99.90
22706;DHT22;11520;51.198;4.468;2023-11-19T13:46:18;13.60;99.90
22706;DHT22;11520;51.198;4.468;2023-11-19T13:48:44;13.60;99.90
22706;DHT22;11520;51.198;4.468;2023-11-19T13:51:10;13.50;99.90
22706;DHT22;11520;51.198;4.468;2023-11-19T13:53:36;13.40;99.90
22706;DHT22;11520;51.198;4.468;2023-11-19T13:56:09;13.50;99.90
22706;DHT22;11520;51.198;4.468;2023-11-19T13:58:34;13.60;99.90
22706;DHT22;11520;51.198;4.468;2023-11-19T14:01:00;13.50;99.90
22706;DHT22;11520;51.198;4.468;2023-11-19T14:03:27;13.60;99.90
22706;DHT22;11520;51.198;4.468;2023-11-19T14:05:52;13.50;99.90
22706;DHT22;11520;51.198;4.468;2023-11-19T14:08:20;13.50;99.90
22706;DHT22;11520;51.198;4.468;2023-11-19T14:10:46;13.40;99.90
22706;DHT22;11520;51.198;4.468;2023-11-19T14:13:11;13.50;99.90
22706;DHT22;11520;51.198;4.468;2023-11-19T14:15:37;13.60;99.90
22706;DHT22;11520;51.198;4.468;2023-11-19T14:18:04;13.60;99.90
22706;DHT22;11520;51.198;4.468;2023-11-19T14:20:30;13.70;99.90
22706;DHT22;11520;51.198;4.468;2023-11-19T14:22:55;13.60;99.90
22706;DHT22;11520;51.198;4.468;2023-11-19T14:25:21;13.50;99.90
22706;DHT22;11520;51.198;4.468;2023-11-19T14:27:48;13.40;99.90
22706;DHT22;11520;51.198;4.468;2023-11-19T14:30:14;13.30;99.90
22706;DHT22;11520;51.198;4.468;2023-11-19T14:32:41;13.30;99.90
22706;DHT22;11520;51.198;4.468;2023-11-19T14:35:09;13.20;99.90
22706;DHT22;11520;51.198;4.468;2023-11-19T14:37:34;13.20;99.90
22706;DHT22;11520;51.198;4.468;2023-11-19T14:40:01;13.20;99.90
22706;DHT22;11520;51.198;4.468;2023-11-19T14:42:29;13.20;99.90
22706;DHT22;11520;51.198;4.468;2023-11-19T14:44:55;13.20;99.90
22706;DHT22;11520;51.198;4.468;2023-11-19T14:47:21;13.20;99.90
22706;DHT22;11520;51.198;4.468;2023-11-19T14:49:47;13.20;99.90
22706;DHT22;11520;51.198;4.468;2023-11-19T14:52:12;13.10;99.90
22706;DHT22;11520;51.198;4.468;2023-11-19T14:54:38;13.10;99.90
22706;DHT22;11520;51.198;4.468;2023-11-19T14:57:05;13.00;99.90
22706;DHT22;11520;51.198;4.468;2023-11-19T14:59:31;13.00;99.90
22706;DHT22;11520;51.198;4.468;2023-11-19T15:01:58;12.90;99.90
22706;DHT22;11520;51.198;4.468;2023-11-19T15:04:24;12.90;99.90
22706;DHT22;11520;51.198;4.468;2023-11-19T15:06:50;13.00;99.90
22706;DHT22;11520;51.198;4.468;2023-11-19T15:09:15;13.00;99.90
22706;DHT22;11520;51.198;4.468;2023-11-19T15:11:43;12.90;99.90
22706;DHT22;11520;51.198;4.468;2023-11-19T15:14:12;12.90;99.90
22706;DHT22;11520;51.198;4.468;2023-11-19T15:17:00;12.90;99.90
22706;DHT22;11520;51.198;4.468;2023-11-19T15:19:27;12.80;99.90
22706;DHT22;11520;51.198;4.468;2023-11-19T15:21:53;12.80;99.90
22706;DHT22;11520;51.198;4.468;2023-11-19T15:24:20;12.80;99.90
22706;DHT22;11520;51.198;4.468;2023-11-19T15:26:46;12.80;99.90
22706;DHT22;11520;51.198;4.468;2023-11-19T15:29:11;12.80;99.90
22706;DHT22;11520;51.198;4.468;2023-11-19T15:31:38;12.80;99.90
22706;DHT22;11520;51.198;4.468;2023-11-19T15:34:04;12.80;99.90
22706;DHT22;11520;51.198;4.468;2023-11-19T15:36:29;12.70;99.90
22706;DHT22;11520;51.198;4.468;2023-11-19T15:38:57;12.80;99.90
22706;DHT22;11520;51.198;4.468;2023-11-19T15:41:22;12.70;99.90
22706;DHT22;11520;51.198;4.468;2023-11-19T15:43:49;12.70;99.90